createdAt,value
2023-09-11T00:01:04.998Z,422.50
2023-09-11T00:03:32.715Z,464.00
2023-09-11T00:06:06.762Z,447.23
2023-09-11T00:08:34.337Z,488.23
2023-09-11T00:11:01.783Z,476.65
2023-09-11T00:13:31.823Z,450.83
2023-09-11T00:15:59.061Z,443.85
2023-09-11T00:18:26.224Z,464.05
2023-09-11T00:20:53.477Z,455.83
2023-09-11T00:23:20.766Z,481.88
2023-09-11T00:25:47.969Z,474.83
2023-09-11T00:28:15.352Z,441.00
2023-09-11T00:30:42.451Z,507.02
2023-09-11T00:33:12.626Z,491.80
2023-09-11T00:38:20.835Z,549.97
2023-09-11T00:40:48.052Z,580.83
2023-09-11T00:43:15.274Z,591.42
2023-09-11T00:45:42.429Z,574.72
2023-09-11T00:48:10.667Z,582.67
2023-09-11T00:50:38.119Z,568.90
2023-09-11T00:53:06.360Z,571.15
2023-09-11T00:55:33.593Z,551.78
2023-09-11T00:58:00.735Z,563.72
2023-09-11T01:00:27.924Z,560.83
2023-09-11T01:02:55.267Z,567.55
2023-09-11T01:05:23.758Z,552.97
2023-09-11T01:07:51.250Z,528.45
2023-09-11T01:10:18.383Z,540.97
2023-09-11T01:12:48.579Z,544.95
2023-09-11T01:15:15.662Z,544.65
2023-09-11T01:17:42.980Z,525.33
2023-09-11T01:20:26.113Z,512.90
2023-09-11T01:23:18.258Z,504.17
2023-09-11T01:25:54.144Z,527.53
2023-09-11T01:28:21.332Z,506.30
2023-09-11T01:30:49.022Z,493.73
2023-09-11T01:33:16.449Z,481.55
2023-09-11T01:35:43.713Z,507.58
2023-09-11T01:38:21.293Z,484.37
2023-09-11T01:40:53.703Z,508.88
2023-09-11T01:43:21.435Z,515.33
2023-09-11T01:45:49.942Z,527.95
2023-09-11T01:48:17.694Z,513.25
2023-09-11T01:50:45.145Z,541.17
2023-09-11T01:53:12.833Z,539.63
2023-09-11T01:55:40.154Z,542.15
2023-09-11T01:58:07.213Z,522.77
2023-09-11T02:00:34.793Z,527.80
2023-09-11T02:03:02.967Z,530.58
2023-09-11T02:05:30.400Z,494.23
2023-09-11T02:07:58.175Z,477.73
2023-09-11T02:10:25.284Z,479.55
2023-09-11T02:12:52.371Z,485.50
2023-09-11T02:15:19.807Z,498.40
2023-09-11T02:17:47.516Z,500.85
2023-09-11T02:20:14.750Z,510.73
2023-09-11T02:22:41.904Z,485.35
2023-09-11T02:25:09.278Z,486.13
2023-09-11T02:27:36.393Z,452.90
2023-09-11T02:30:04.123Z,477.73
2023-09-11T02:32:31.301Z,485.63
2023-09-11T02:34:58.499Z,467.77
2023-09-11T02:37:25.663Z,495.05
2023-09-11T02:39:52.787Z,515.85
2023-09-11T02:42:19.861Z,520.60
2023-09-11T02:44:49.535Z,504.65
2023-09-11T02:47:16.661Z,471.70
2023-09-11T02:49:44.117Z,453.38
2023-09-11T02:52:14.296Z,467.00
2023-09-11T02:57:13.590Z,485.88
2023-09-11T02:59:40.778Z,398.42
2023-09-11T03:02:07.961Z,503.83
2023-09-11T03:04:35.038Z,498.35
2023-09-11T03:07:02.174Z,515.17
2023-09-11T03:09:29.320Z,498.77
2023-09-11T03:11:59.027Z,506.55
2023-09-11T03:14:26.256Z,486.23
2023-09-11T03:16:53.425Z,139.35
2023-09-11T03:19:23.558Z,57.40
2023-09-11T03:21:50.703Z,95.10
2023-09-11T03:24:17.772Z,427.42
2023-09-11T03:26:44.923Z,483.20
2023-09-11T03:29:12.068Z,480.80
2023-09-11T03:31:39.148Z,400.88
2023-09-11T03:34:06.520Z,379.60
2023-09-11T03:36:33.714Z,384.10
2023-09-11T03:39:00.876Z,386.63
2023-09-11T03:41:28.141Z,415.33
2023-09-11T03:43:55.397Z,453.38
2023-09-11T03:46:23.130Z,424.60
2023-09-11T03:48:53.078Z,387.60
2023-09-11T03:51:23.047Z,364.52
2023-09-11T03:53:51.294Z,397.60
2023-09-11T03:56:21.504Z,373.15
2023-09-11T03:58:55.313Z,359.02
2023-09-11T04:01:22.366Z,368.17
2023-09-11T04:03:52.823Z,390.00
2023-09-11T04:06:20.630Z,385.20
2023-09-11T04:08:50.114Z,376.08
2023-09-11T04:11:23.912Z,381.05
2023-09-11T04:13:51.487Z,388.42
2023-09-11T04:16:22.730Z,382.77
2023-09-11T04:18:49.865Z,353.88
2023-09-11T04:21:17.442Z,345.13
2023-09-11T04:23:44.735Z,381.95
2023-09-11T04:26:11.911Z,380.70
2023-09-11T04:28:39.570Z,363.15
2023-09-11T04:31:06.844Z,349.33
2023-09-11T04:33:34.124Z,389.02
2023-09-11T04:36:01.322Z,404.33
2023-09-11T04:38:28.534Z,402.08
2023-09-11T04:40:57.705Z,385.60
2023-09-11T04:43:25.411Z,377.90
2023-09-11T04:45:52.775Z,347.83
2023-09-11T04:48:20.000Z,369.70
2023-09-11T04:50:47.270Z,370.45
2023-09-11T04:53:14.473Z,383.83
2023-09-11T04:55:41.609Z,383.80
2023-09-11T04:58:08.686Z,393.83
2023-09-11T05:00:35.870Z,382.30
2023-09-11T05:03:03.214Z,405.83
2023-09-11T05:05:41.775Z,385.98
2023-09-11T05:08:09.069Z,371.77
2023-09-11T05:10:37.460Z,390.35
2023-09-11T05:13:04.730Z,374.90
2023-09-11T05:15:31.814Z,394.92
2023-09-11T05:17:58.953Z,384.58
2023-09-11T05:20:26.165Z,384.70
2023-09-11T05:22:53.290Z,381.73
2023-09-11T05:25:23.808Z,382.75
2023-09-11T05:27:54.035Z,374.52
2023-09-11T05:30:26.932Z,376.75
2023-09-11T05:32:54.343Z,376.75
2023-09-11T05:35:22.289Z,380.08
2023-09-11T05:37:49.612Z,379.83
2023-09-11T05:40:16.814Z,397.77
2023-09-11T05:42:44.828Z,399.35
2023-09-11T05:45:12.001Z,398.52
2023-09-11T05:47:40.962Z,386.27
2023-09-11T05:50:08.622Z,375.97
2023-09-11T05:52:38.596Z,372.75
2023-09-11T05:55:05.874Z,375.83
2023-09-11T05:57:32.996Z,373.08
2023-09-11T06:00:10.139Z,371.42
2023-09-11T06:02:37.407Z,327.73
2023-09-11T06:05:06.554Z,313.20
2023-09-11T06:07:36.453Z,394.17
2023-09-11T06:10:03.568Z,470.48
2023-09-11T06:12:31.406Z,561.22
2023-09-11T06:14:58.611Z,577.92
2023-09-11T06:17:37.891Z,604.90
2023-09-11T06:20:12.241Z,655.50
2023-09-11T06:22:39.530Z,711.97
2023-09-11T06:25:06.935Z,750.05
2023-09-11T06:27:36.143Z,764.40
2023-09-11T06:30:06.555Z,861.65
2023-09-11T06:32:34.374Z,637.95
2023-09-11T06:35:02.297Z,862.88
2023-09-11T06:37:29.476Z,785.95
2023-09-11T06:39:56.620Z,809.60
2023-09-11T06:42:24.747Z,835.03
2023-09-11T06:44:52.436Z,829.97
2023-09-11T06:47:19.683Z,909.97
2023-09-11T06:49:46.815Z,930.97
2023-09-11T06:52:14.074Z,141.60
2023-09-11T06:54:41.188Z,6.47
2023-09-11T06:57:08.412Z,6.65
2023-09-11T06:59:35.631Z,6.03
2023-09-11T07:02:02.872Z,5.70
2023-09-11T07:04:30.030Z,556.27
2023-09-11T07:06:57.982Z,941.30
2023-09-11T07:09:25.367Z,178.98
2023-09-11T07:11:52.707Z,906.78
2023-09-11T07:14:23.380Z,922.35
2023-09-11T07:16:50.919Z,878.38
2023-09-11T07:19:18.117Z,809.35
2023-09-11T07:21:45.647Z,5.97
2023-09-11T07:24:13.627Z,881.83
2023-09-11T07:26:41.077Z,5.90
2023-09-11T07:29:08.338Z,12.65
2023-09-11T07:31:35.923Z,6.60
2023-09-11T07:34:03.343Z,5.93
2023-09-11T07:36:33.815Z,5.80
2023-09-11T07:39:00.944Z,6.60
2023-09-11T07:41:29.293Z,133.77
2023-09-11T07:43:59.739Z,76.05
2023-09-11T07:46:26.998Z,512.67
2023-09-11T07:48:58.552Z,6.00
2023-09-11T07:51:27.191Z,5.90
2023-09-11T07:53:54.440Z,5.60
2023-09-11T07:56:21.543Z,50.30
2023-09-11T07:58:51.783Z,5.75
2023-09-11T08:01:19.445Z,37.03
2023-09-11T08:03:47.022Z,5.20
2023-09-11T08:06:17.205Z,9.25
2023-09-11T08:08:47.171Z,320.10
2023-09-11T08:11:18.351Z,814.50
2023-09-11T08:13:51.094Z,111.87
2023-09-11T08:16:18.291Z,19.48
2023-09-11T08:18:45.946Z,196.27
2023-09-11T08:21:13.743Z,109.32
2023-09-11T08:23:44.650Z,95.97
2023-09-11T08:26:12.502Z,798.15
2023-09-11T08:28:41.259Z,981.10
2023-09-11T08:31:08.643Z,999.90
2023-09-11T08:33:52.264Z,999.90
2023-09-11T08:36:21.262Z,999.90
2023-09-11T08:38:57.611Z,999.90
2023-09-11T08:41:27.638Z,458.33
2023-09-11T08:43:54.860Z,295.25
2023-09-11T08:46:25.502Z,247.03
2023-09-11T08:48:55.742Z,132.63
2023-09-11T08:51:55.460Z,6.40
2023-09-11T08:54:25.955Z,75.05
2023-09-11T08:56:54.401Z,7.90
2023-09-11T08:59:25.768Z,19.40
2023-09-11T09:01:53.372Z,7.00
2023-09-11T09:04:21.709Z,6.75
2023-09-11T09:06:51.942Z,6.13
2023-09-11T09:09:23.179Z,369.17
2023-09-11T09:11:50.757Z,12.27
2023-09-11T09:14:22.113Z,11.32
2023-09-11T09:16:49.691Z,108.40
2023-09-11T09:19:16.951Z,11.77
2023-09-11T09:22:02.649Z,43.13
2023-09-11T09:24:30.240Z,25.65
2023-09-11T09:26:58.439Z,541.70
2023-09-11T09:29:25.909Z,564.80
2023-09-11T09:31:53.290Z,686.73
2023-09-11T09:34:20.535Z,7.45
2023-09-11T09:36:51.088Z,6.25
2023-09-11T09:39:18.348Z,334.55
2023-09-11T09:41:58.976Z,25.67
2023-09-11T09:44:29.706Z,130.35
2023-09-11T09:46:57.029Z,74.07
2023-09-11T09:49:24.124Z,44.30
2023-09-11T09:51:53.247Z,6.22
2023-09-11T09:54:26.291Z,6.07
2023-09-11T09:56:56.397Z,6.45
2023-09-11T09:59:26.368Z,5.95
2023-09-11T10:01:53.606Z,4.97
2023-09-11T10:04:22.780Z,5.80
2023-09-11T10:06:57.964Z,5.22
2023-09-11T10:09:25.061Z,5.30
2023-09-11T10:11:56.319Z,5.30
2023-09-11T10:14:23.776Z,5.10
2023-09-11T10:16:50.879Z,6.10
2023-09-11T10:19:19.651Z,539.05
2023-09-11T10:21:46.844Z,376.50
2023-09-11T10:24:14.048Z,999.90
2023-09-11T10:26:45.498Z,999.90
2023-09-11T10:29:16.264Z,999.90
2023-09-11T10:31:53.707Z,999.90
2023-09-11T10:34:25.647Z,62.97
2023-09-11T10:36:55.678Z,938.17
2023-09-11T10:39:23.858Z,5.33
2023-09-11T10:41:51.208Z,376.80
2023-09-11T10:44:18.789Z,601.17
2023-09-11T10:46:49.733Z,999.90
2023-09-11T10:49:21.101Z,999.90
2023-09-11T10:51:49.044Z,999.90
2023-09-11T10:54:23.167Z,123.10
2023-09-11T10:56:50.834Z,645.55
2023-09-11T10:59:18.339Z,999.90
2023-09-11T11:01:47.061Z,876.25
2023-09-11T11:04:15.412Z,304.70
2023-09-11T11:06:54.411Z,902.30
2023-09-11T11:09:32.529Z,705.80
2023-09-11T11:12:05.784Z,204.93
2023-09-11T11:14:33.168Z,18.77
2023-09-11T11:17:13.370Z,815.05
2023-09-11T11:19:43.309Z,34.58
2023-09-11T11:22:29.926Z,6.90
2023-09-11T11:24:59.366Z,999.90
2023-09-11T11:27:26.511Z,21.23
2023-09-11T11:29:57.377Z,4.70
2023-09-11T11:32:28.009Z,4.75
2023-09-11T11:34:56.782Z,24.50
2023-09-11T11:37:25.264Z,4.43
2023-09-11T11:39:52.613Z,6.65
2023-09-11T11:42:23.186Z,4.80
2023-09-11T11:44:50.824Z,76.43
2023-09-11T11:47:18.780Z,337.13
2023-09-11T11:49:50.282Z,839.33
2023-09-11T11:52:24.262Z,999.90
2023-09-11T11:54:51.514Z,999.90
2023-09-11T11:57:21.972Z,999.90
2023-09-11T11:59:52.884Z,999.90
2023-09-11T12:02:21.112Z,999.90
2023-09-11T12:04:50.202Z,999.90
2023-09-11T12:07:18.243Z,999.90
2023-09-11T12:09:47.861Z,986.72
2023-09-11T12:12:15.251Z,999.90
2023-09-11T12:14:43.369Z,999.90
2023-09-11T12:17:11.089Z,999.90
2023-09-11T12:19:41.130Z,999.90
2023-09-11T12:22:09.999Z,999.90
2023-09-11T12:24:37.458Z,999.90
2023-09-11T12:27:06.322Z,999.90
2023-09-11T12:29:36.889Z,999.90
2023-09-11T12:32:04.208Z,999.90
2023-09-11T12:34:44.651Z,999.90
2023-09-11T12:37:11.861Z,999.90
2023-09-11T12:39:38.958Z,999.90
2023-09-11T12:42:09.154Z,999.90
2023-09-11T12:44:36.459Z,999.90
2023-09-11T12:47:06.720Z,999.90
2023-09-11T12:49:34.049Z,999.90
2023-09-11T12:52:04.106Z,999.90
2023-09-11T12:54:33.086Z,999.90
2023-09-11T12:57:04.097Z,999.90
2023-09-11T12:59:33.908Z,999.90
2023-09-11T13:02:01.055Z,999.90
2023-09-11T13:04:28.624Z,999.90
2023-09-11T13:06:55.775Z,999.90
2023-09-11T13:09:23.589Z,999.90
2023-09-11T13:11:50.856Z,999.90
2023-09-11T13:14:18.163Z,999.90
2023-09-11T13:16:46.327Z,999.90
2023-09-11T13:19:13.817Z,999.90
2023-09-11T13:21:41.020Z,999.90
2023-09-11T13:24:08.493Z,999.90
2023-09-11T13:26:35.685Z,999.90
2023-09-11T13:29:05.777Z,999.90
2023-09-11T13:31:32.884Z,999.90
2023-09-11T13:34:02.815Z,999.90
2023-09-11T13:36:30.095Z,999.90
2023-09-11T13:39:04.926Z,999.90
2023-09-11T13:41:33.055Z,999.90
2023-09-11T13:44:00.185Z,999.90
2023-09-11T13:46:29.405Z,999.90
2023-09-11T13:48:56.621Z,903.10
2023-09-11T13:51:23.853Z,999.90
2023-09-11T13:53:51.041Z,999.90
2023-09-11T13:56:18.245Z,999.90
2023-09-11T13:58:47.993Z,405.10
2023-09-11T14:01:17.016Z,265.08
2023-09-11T14:03:44.330Z,999.90
2023-09-11T14:06:11.581Z,999.90
2023-09-11T14:08:38.939Z,999.90
2023-09-11T14:11:06.211Z,999.90
2023-09-11T14:13:33.291Z,999.90
2023-09-11T14:16:00.608Z,999.90
2023-09-11T14:18:28.216Z,999.90
2023-09-11T14:20:55.444Z,999.90
2023-09-11T14:23:22.616Z,999.90
2023-09-11T14:25:49.789Z,999.90
2023-09-11T14:28:19.313Z,710.28
2023-09-11T14:30:46.464Z,107.70
2023-09-11T14:33:13.658Z,974.95
2023-09-11T14:35:40.820Z,999.90
2023-09-11T14:38:08.013Z,999.90
2023-09-11T14:40:37.249Z,999.90
2023-09-11T14:43:04.612Z,999.90
2023-09-11T14:45:31.798Z,999.90
2023-09-11T14:47:58.931Z,999.90
2023-09-11T14:50:26.084Z,999.90
2023-09-11T14:52:53.548Z,999.90
2023-09-11T14:55:20.799Z,999.90
2023-09-11T14:57:50.997Z,999.90
2023-09-11T15:00:18.259Z,999.90
2023-09-11T15:02:45.713Z,999.90
2023-09-11T15:05:13.240Z,999.90
2023-09-11T15:07:43.989Z,999.90
2023-09-11T15:10:11.696Z,999.90
2023-09-11T15:12:38.840Z,999.90
2023-09-11T15:15:06.235Z,999.90
2023-09-11T15:17:33.469Z,999.90
2023-09-11T15:20:00.580Z,999.90
2023-09-11T15:22:28.080Z,999.90
2023-09-11T15:24:55.258Z,999.90
2023-09-11T15:27:23.058Z,999.90
2023-09-11T15:29:50.304Z,999.90
2023-09-11T15:32:17.622Z,999.90
2023-09-11T15:34:44.778Z,999.90
2023-09-11T15:37:16.838Z,999.90
2023-09-11T15:39:44.299Z,999.90
2023-09-11T15:42:11.820Z,999.90
2023-09-11T15:44:39.162Z,999.90
2023-09-11T15:47:06.439Z,999.90
2023-09-11T15:49:33.559Z,999.90
2023-09-11T15:52:04.575Z,999.90
2023-09-11T15:54:32.488Z,999.90
2023-09-11T15:56:59.784Z,999.90
2023-09-11T15:59:26.908Z,999.90
2023-09-11T16:01:54.198Z,999.90
2023-09-11T16:04:21.397Z,999.90
2023-09-11T16:06:48.669Z,999.90
2023-09-11T16:09:16.035Z,999.90
2023-09-11T16:11:43.280Z,999.90
2023-09-11T16:14:10.476Z,999.90
2023-09-11T16:16:40.998Z,999.90
2023-09-11T16:19:08.099Z,999.90
2023-09-11T16:21:40.861Z,999.90
2023-09-11T16:24:09.102Z,999.90
2023-09-11T16:26:36.349Z,999.90
2023-09-11T16:29:03.554Z,999.90
2023-09-11T16:31:31.021Z,999.90
2023-09-11T16:33:58.623Z,999.90
2023-09-11T16:36:26.275Z,999.90
2023-09-11T16:38:53.941Z,285.75
2023-09-11T16:41:21.164Z,999.90
2023-09-11T16:43:48.314Z,951.95
2023-09-11T16:46:15.464Z,900.10
2023-09-11T16:48:42.874Z,942.95
2023-09-11T16:51:10.645Z,999.90
2023-09-11T16:53:37.910Z,999.90
2023-09-11T16:56:06.528Z,999.90
2023-09-11T16:58:33.817Z,999.90
2023-09-11T17:01:09.069Z,609.25
2023-09-11T17:03:36.450Z,445.73
2023-09-11T17:06:06.847Z,226.77
2023-09-11T17:08:33.939Z,28.60
2023-09-11T17:11:01.399Z,999.90
2023-09-11T17:13:32.278Z,999.90
2023-09-11T17:16:01.845Z,881.95
2023-09-11T17:18:32.229Z,83.53
2023-09-11T17:20:59.893Z,151.13
2023-09-11T17:23:27.032Z,56.58
2023-09-11T17:25:54.154Z,57.17
2023-09-11T17:28:21.237Z,3.03
2023-09-11T17:30:48.417Z,347.98
2023-09-11T17:33:15.637Z,109.50
2023-09-11T17:35:42.838Z,3.22
2023-09-11T17:38:10.001Z,3.13
2023-09-11T17:40:37.222Z,22.05
2023-09-11T17:43:12.977Z,14.85
2023-09-11T17:45:40.124Z,234.33
2023-09-11T17:48:07.639Z,7.28
2023-09-11T17:50:35.180Z,7.13
2023-09-11T17:53:02.287Z,4.07
2023-09-11T17:55:30.550Z,4.13
2023-09-11T17:57:57.783Z,3.80
2023-09-11T18:00:26.659Z,4.15
2023-09-11T18:02:56.736Z,3.93
2023-09-11T18:05:23.897Z,3.97
2023-09-11T18:07:53.167Z,3.90
2023-09-11T18:10:20.218Z,3.80
2023-09-11T18:12:47.297Z,4.20
2023-09-11T18:15:14.439Z,4.07
2023-09-11T18:17:43.734Z,4.13
2023-09-11T18:20:13.630Z,4.15
2023-09-11T18:22:40.698Z,3.45
2023-09-11T18:25:08.302Z,3.97
2023-09-11T18:27:36.911Z,4.00
2023-09-11T18:30:05.193Z,4.18
2023-09-11T18:32:32.463Z,4.20
2023-09-11T18:34:59.636Z,4.72
2023-09-11T18:37:29.541Z,4.07
2023-09-11T18:39:56.629Z,4.38
2023-09-11T18:42:23.771Z,4.60
2023-09-11T18:44:51.073Z,4.28
2023-09-11T18:47:18.170Z,4.13
2023-09-11T18:49:45.291Z,4.15
2023-09-11T18:52:12.418Z,4.20
2023-09-11T18:54:39.727Z,4.38
2023-09-11T18:57:08.331Z,4.70
2023-09-11T18:59:35.534Z,4.80
2023-09-11T19:02:02.935Z,4.80
2023-09-11T19:04:30.980Z,5.00
2023-09-11T19:06:58.382Z,5.07
2023-09-11T19:09:28.529Z,5.10
2023-09-11T19:11:55.824Z,4.95
2023-09-11T19:14:23.005Z,5.47
2023-09-11T19:16:50.141Z,4.90
2023-09-11T19:19:17.346Z,4.73
2023-09-11T19:21:44.565Z,4.97
2023-09-11T19:24:12.048Z,3.60
2023-09-11T19:26:39.277Z,1.25
2023-09-11T19:31:33.470Z,7.60
2023-09-11T19:34:00.920Z,24.63
2023-09-11T19:36:28.114Z,18.63
2023-09-11T19:38:55.311Z,25.70
2023-09-11T19:41:25.926Z,27.77
2023-09-11T19:43:52.983Z,22.38
2023-09-11T19:46:20.229Z,12.32
2023-09-11T19:48:47.529Z,21.83
2023-09-11T19:51:20.750Z,19.80
2023-09-11T19:53:50.869Z,20.00
2023-09-11T19:56:23.784Z,33.13
2023-09-11T19:58:50.974Z,29.88
2023-09-11T20:01:18.084Z,34.60
2023-09-11T20:03:45.393Z,34.15
2023-09-11T20:06:14.020Z,34.63
2023-09-11T20:08:41.475Z,35.55
2023-09-11T20:11:08.934Z,34.65
2023-09-11T20:13:37.213Z,34.17
2023-09-11T20:16:05.400Z,36.28
2023-09-11T20:18:32.657Z,35.13
2023-09-11T20:21:00.820Z,22.17
2023-09-11T20:23:30.128Z,39.33
2023-09-11T20:25:57.217Z,35.70
2023-09-11T20:28:26.859Z,35.67
2023-09-11T20:30:53.894Z,42.10
2023-09-11T20:33:21.086Z,48.50
2023-09-11T20:35:48.383Z,39.85
2023-09-11T20:38:15.638Z,36.92
2023-09-11T20:40:42.822Z,40.10
2023-09-11T20:43:09.931Z,41.97
2023-09-11T20:45:37.153Z,45.38
2023-09-11T20:48:04.568Z,16.37
2023-09-11T20:50:31.716Z,14.32
2023-09-11T20:52:58.843Z,47.92
2023-09-11T20:55:25.980Z,44.88
2023-09-11T20:57:53.494Z,45.00
2023-09-11T21:00:23.454Z,42.53
2023-09-11T21:02:50.648Z,43.25
2023-09-11T21:05:18.542Z,40.28
2023-09-11T21:07:45.911Z,33.42
2023-09-11T21:10:13.263Z,36.83
2023-09-11T21:12:53.312Z,30.20
2023-09-11T21:15:20.661Z,32.08
2023-09-11T21:17:49.033Z,33.87
2023-09-11T21:20:16.869Z,34.22
2023-09-11T21:22:44.605Z,34.63
2023-09-11T21:25:14.875Z,38.38
2023-09-11T21:27:42.028Z,35.28
2023-09-11T21:30:09.361Z,30.77
2023-09-11T21:32:36.526Z,28.53
2023-09-11T21:35:03.731Z,34.50
2023-09-11T21:37:30.968Z,31.67
2023-09-11T21:40:00.908Z,28.90
2023-09-11T21:42:33.629Z,30.13
2023-09-11T21:45:06.683Z,32.78
2023-09-11T21:47:33.982Z,30.83
2023-09-11T21:50:01.109Z,30.50
2023-09-11T21:52:28.157Z,29.73
2023-09-11T21:54:55.450Z,28.90
2023-09-11T21:57:22.735Z,30.08
2023-09-11T21:59:49.914Z,31.17
2023-09-11T22:02:19.024Z,29.98
2023-09-11T22:04:52.742Z,31.10
2023-09-11T22:07:19.873Z,30.63
2023-09-11T22:09:46.996Z,31.55
2023-09-11T22:12:14.159Z,29.92
2023-09-11T22:14:41.533Z,30.38
2023-09-11T22:17:10.363Z,29.45
2023-09-11T22:19:39.115Z,29.02
2023-09-11T22:22:06.205Z,28.95
2023-09-11T22:24:33.300Z,29.15
2023-09-11T22:27:06.209Z,28.20
2023-09-11T22:29:43.825Z,28.45
2023-09-11T22:32:10.984Z,29.10
2023-09-11T22:34:38.280Z,31.25
2023-09-11T22:37:05.582Z,31.33
2023-09-11T22:39:32.730Z,30.98
2023-09-11T22:41:59.934Z,30.58
2023-09-11T22:44:33.851Z,28.92
2023-09-11T22:47:01.768Z,36.28
2023-09-11T22:49:29.523Z,38.63
2023-09-11T22:51:56.621Z,37.95
2023-09-11T22:54:24.090Z,31.38
2023-09-11T22:56:51.382Z,37.00
2023-09-11T22:59:21.502Z,7.47
2023-09-11T23:01:48.792Z,8.75
2023-09-11T23:04:16.170Z,8.50
2023-09-11T23:06:43.516Z,8.48
2023-09-11T23:09:10.827Z,7.80
2023-09-11T23:11:39.042Z,8.25
2023-09-11T23:14:06.144Z,39.63
2023-09-11T23:16:33.280Z,40.33
2023-09-11T23:19:00.521Z,38.28
2023-09-11T23:21:27.806Z,37.25
2023-09-11T23:23:54.983Z,9.52
2023-09-11T23:26:25.506Z,10.00
2023-09-11T23:28:55.688Z,9.48
2023-09-11T23:31:25.433Z,9.52
2023-09-11T23:33:52.552Z,15.23
2023-09-11T23:36:19.647Z,8.57
2023-09-11T23:38:46.717Z,20.70
2023-09-11T23:41:13.882Z,10.95
2023-09-11T23:43:40.994Z,23.77
2023-09-11T23:46:08.207Z,22.27
2023-09-11T23:48:37.684Z,22.20
2023-09-11T23:51:04.806Z,18.83
2023-09-11T23:53:34.819Z,9.57
2023-09-11T23:56:01.858Z,38.47
2023-09-11T23:58:28.956Z,6.65
